Time;durP1;ratioP1;P1;durP2;ratioP2;P2;SDS_P1;SDS_P2;PMS_P1;PMS_P2;Temp;Humidity;BMP_temperature;BMP_pressure;BME280_temperature;BME280_humidity;BME280_pressure;Samples;Min_cycle;Max_cycle;Signal;HPM_P1;HPM_P2
2023/08/02 00:02:49;;;;;;;18.85;5.00;;;;;;;;;;5015371;28;20043;-65
2023/08/02 00:06:33;;;;;;;16.52;5.63;;;;;;;;;;5020686;28;20045;-65
2023/08/02 00:10:13;;;;;;;15.13;5.88;;;;;;;;;;5018941;28;20518;-65
2023/08/02 00:13:53;;;;;;;15.48;5.68;;;;;;;;;;5016230;28;20070;-65
2023/08/02 00:16:54;;;;;;;12.27;5.40;;;;;;;;;;5016272;28;20458;-65
2023/08/02 00:19:20;;;;;;;16.73;6.25;;;;;;;;;;5016217;28;20049;-65
2023/08/02 00:21:45;;;;;;;16.08;6.85;;;;;;;;;;5018071;28;20756;-65
2023/08/02 00:24:12;;;;;;;22.23;6.68;;;;;;;;;;5014666;28;20066;-65
2023/08/02 00:26:37;;;;;;;14.52;5.75;;;;;;;;;;5017669;28;20050;-65
2023/08/02 00:29:04;;;;;;;20.52;6.35;;;;;;;;;;5013460;28;20057;-65
2023/08/02 00:31:30;;;;;;;16.15;6.82;;;;;;;;;;5014843;28;20504;-65
2023/08/02 00:33:56;;;;;;;15.60;6.63;;;;;;;;;;5013915;28;20037;-64
2023/08/02 00:37:02;;;;;;;13.98;6.68;;;;;;;;;;5016829;28;20104;-65
2023/08/02 00:40:45;;;;;;;15.07;6.93;;;;;;;;;;5015358;28;20085;-65
2023/08/02 00:44:25;;;;;;;17.55;6.88;;;;;;;;;;5015557;28;20050;-65
2023/08/02 00:48:05;;;;;;;17.38;6.20;;;;;;;;;;5018662;28;20045;-65
2023/08/02 00:51:46;;;;;;;13.13;6.18;;;;;;;;;;5020225;28;20510;-65
2023/08/02 00:55:26;;;;;;;18.38;5.25;;;;;;;;;;5020517;28;20112;-65
2023/08/02 00:59:06;;;;;;;12.00;5.53;;;;;;;;;;5017841;28;20051;-65
2023/08/02 01:02:47;;;;;;;16.38;5.47;;;;;;;;;;5018618;28;20495;-65
2023/08/02 01:06:30;;;;;;;12.88;5.43;;;;;;;;;;5022377;28;20089;-64
2023/08/02 01:09:59;;;;;;;12.57;5.63;;;;;;;;;;5020161;28;20133;-64
2023/08/02 01:13:40;;;;;;;18.58;6.20;;;;;;;;;;5017417;28;20502;-65
2023/08/02 01:17:20;;;;;;;11.77;5.82;;;;;;;;;;5016809;28;20115;-66
2023/08/02 01:21:01;;;;;;;17.25;5.85;;;;;;;;;;5019027;28;20127;-64
2023/08/02 01:24:41;;;;;;;15.85;6.20;;;;;;;;;;5018740;28;20120;-64
2023/08/02 01:28:24;;;;;;;15.85;6.47;;;;;;;;;;5017713;28;20423;-66
2023/08/02 01:32:05;;;;;;;18.40;6.45;;;;;;;;;;5019874;28;20251;-63
2023/08/02 01:35:45;;;;;;;12.55;5.75;;;;;;;;;;5017975;28;20494;-65
2023/08/02 01:39:26;;;;;;;14.68;6.03;;;;;;;;;;5016528;28;20083;-65
2023/08/02 01:43:06;;;;;;;21.60;6.40;;;;;;;;;;5018310;28;20045;-64
2023/08/02 01:46:46;;;;;;;17.63;5.93;;;;;;;;;;5019331;28;20057;-64
2023/08/02 01:50:28;;;;;;;15.07;5.60;;;;;;;;;;5018778;28;20064;-65
2023/08/02 01:54:08;;;;;;;18.10;6.45;;;;;;;;;;5017637;28;20037;-64
2023/08/02 01:57:48;;;;;;;20.95;6.22;;;;;;;;;;5017870;28;20514;-65
2023/08/02 02:01:29;;;;;;;17.60;6.25;;;;;;;;;;5016617;28;20049;-64
2023/08/02 02:05:09;;;;;;;17.58;5.40;;;;;;;;;;5019632;28;20388;-64
2023/08/02 02:08:49;;;;;;;16.63;5.75;;;;;;;;;;5017165;28;20049;-64
2023/08/02 02:12:30;;;;;;;15.68;5.63;;;;;;;;;;5018652;28;20388;-65
2023/08/02 02:16:10;;;;;;;11.43;6.13;;;;;;;;;;5019464;28;20049;-66
2023/08/02 02:19:50;;;;;;;15.00;5.03;;;;;;;;;;5019250;28;20128;-65
2023/08/02 02:23:31;;;;;;;17.10;5.55;;;;;;;;;;5018826;28;20049;-65
2023/08/02 02:27:11;;;;;;;15.93;5.93;;;;;;;;;;5018526;28;20038;-65
2023/08/02 02:30:51;;;;;;;15.45;6.80;;;;;;;;;;5017914;28;20045;-65
2023/08/02 02:34:32;;;;;;;17.88;6.18;;;;;;;;;;5018687;28;20443;-65
2023/08/02 02:37:52;;;;;;;10.88;6.05;;;;;;;;;;5016313;28;20116;-64
2023/08/02 02:40:19;;;;;;;12.45;5.72;;;;;;;;;;5016158;28;20106;-65
2023/08/02 02:42:45;;;;;;;17.35;6.60;;;;;;;;;;5017355;28;20041;-65
2023/08/02 02:45:11;;;;;;;14.25;6.00;;;;;;;;;;5017201;28;20100;-65
2023/08/02 02:47:36;;;;;;;17.02;6.13;;;;;;;;;;5018133;28;20065;-64
2023/08/02 02:50:03;;;;;;;13.30;5.93;;;;;;;;;;5019710;28;20446;-65
2023/08/02 02:52:29;;;;;;;15.30;6.10;;;;;;;;;;5016086;28;20046;-64
2023/08/02 02:54:55;;;;;;;12.05;5.88;;;;;;;;;;5015465;28;20091;-65
2023/08/02 02:57:21;;;;;;;17.77;6.50;;;;;;;;;;5017237;28;20439;-64
2023/08/02 02:59:47;;;;;;;16.30;5.70;;;;;;;;;;5017522;28;20045;-65
2023/08/02 03:02:13;;;;;;;16.35;5.57;;;;;;;;;;5015666;28;20132;-65
2023/08/02 03:04:39;;;;;;;15.15;5.72;;;;;;;;;;5017645;28;20494;-65
2023/08/02 03:07:05;;;;;;;16.90;5.93;;;;;;;;;;5017123;28;20183;-65
2023/08/02 03:09:31;;;;;;;12.50;5.25;;;;;;;;;;5012729;28;20065;-64
2023/08/02 03:11:57;;;;;;;13.00;5.25;;;;;;;;;;5013652;28;20046;-65
2023/08/02 03:14:23;;;;;;;11.80;6.05;;;;;;;;;;5017896;28;20050;-66
2023/08/02 03:16:49;;;;;;;13.93;5.90;;;;;;;;;;5017736;28;20050;-64
2023/08/02 03:19:15;;;;;;;16.40;6.13;;;;;;;;;;5016917;28;20049;-65
2023/08/02 03:21:43;;;;;;;16.00;6.15;;;;;;;;;;5016673;28;20415;-66
2023/08/02 03:24:09;;;;;;;16.98;6.32;;;;;;;;;;5016418;28;20059;-66
2023/08/02 03:26:35;;;;;;;14.43;6.15;;;;;;;;;;5016261;28;20041;-64
2023/08/02 03:29:01;;;;;;;16.15;6.20;;;;;;;;;;5017267;28;20411;-65
2023/08/02 03:31:27;;;;;;;13.77;5.57;;;;;;;;;;5015702;28;20058;-65
2023/08/02 03:33:53;;;;;;;15.13;5.80;;;;;;;;;;5013067;28;20089;-64
2023/08/02 03:36:19;;;;;;;12.23;5.65;;;;;;;;;;5020222;28;20057;-65
2023/08/02 03:38:45;;;;;;;13.80;5.80;;;;;;;;;;5016363;28;20266;-64
2023/08/02 03:41:11;;;;;;;10.85;5.47;;;;;;;;;;5018792;28;20160;-65
2023/08/02 03:43:37;;;;;;;12.25;5.63;;;;;;;;;;5014907;28;20053;-63
2023/08/02 03:46:03;;;;;;;12.85;5.78;;;;;;;;;;5016099;28;20057;-64
2023/08/02 03:48:31;;;;;;;13.50;5.70;;;;;;;;;;5014106;28;20080;-66
2023/08/02 03:50:57;;;;;;;14.35;5.53;;;;;;;;;;5016940;28;22489;-64
2023/08/02 03:53:25;;;;;;;16.65;5.30;;;;;;;;;;5014605;28;20096;-65
2023/08/02 03:55:50;;;;;;;13.07;6.00;;;;;;;;;;5016539;28;20057;-65
2023/08/02 03:58:16;;;;;;;12.73;5.85;;;;;;;;;;5014600;28;20037;-64
2023/08/02 04:00:42;;;;;;;12.90;5.55;;;;;;;;;;5010847;28;20061;-64
2023/08/02 04:03:08;;;;;;;13.32;5.55;;;;;;;;;;5012300;28;20041;-64
2023/08/02 04:05:34;;;;;;;12.88;5.75;;;;;;;;;;5016192;28;20080;-65
2023/08/02 04:08:00;;;;;;;13.88;5.50;;;;;;;;;;5015321;28;20046;-65
2023/08/02 04:10:26;;;;;;;16.52;5.80;;;;;;;;;;5022139;28;20565;-65
2023/08/02 04:12:52;;;;;;;11.40;5.32;;;;;;;;;;5022371;28;20041;-65
2023/08/02 04:15:18;;;;;;;13.05;5.25;;;;;;;;;;5024763;28;20390;-64
2023/08/02 04:17:44;;;;;;;11.57;5.50;;;;;;;;;;5024170;28;20044;-66
2023/08/02 04:20:10;;;;;;;14.27;5.38;;;;;;;;;;5020378;28;20046;-65
2023/08/02 04:22:36;;;;;;;14.38;5.25;;;;;;;;;;5021265;28;20127;-64
2023/08/02 04:25:03;;;;;;;10.70;5.28;;;;;;;;;;5020786;28;20571;-67
2023/08/02 04:27:29;;;;;;;19.35;5.80;;;;;;;;;;5013397;28;20061;-65
2023/08/02 04:29:55;;;;;;;15.77;5.85;;;;;;;;;;5013498;28;20062;-66
2023/08/02 04:32:21;;;;;;;14.95;5.47;;;;;;;;;;5013107;28;20050;-66
2023/08/02 04:34:47;;;;;;;15.07;6.20;;;;;;;;;;5020072;28;20072;-67
2023/08/02 04:37:13;;;;;;;10.02;5.40;;;;;;;;;;5019423;28;20042;-66
2023/08/02 04:39:39;;;;;;;14.40;6.22;;;;;;;;;;5020606;28;20048;-66
2023/08/02 04:42:05;;;;;;;15.80;6.30;;;;;;;;;;5019705;28;20049;-65
2023/08/02 04:44:31;;;;;;;18.90;6.35;;;;;;;;;;5016501;28;20149;-66
2023/08/02 04:46:57;;;;;;;14.40;6.15;;;;;;;;;;5016914;28;20050;-66
2023/08/02 04:49:23;;;;;;;12.60;5.90;;;;;;;;;;5030422;28;20052;-66
2023/08/02 04:51:49;;;;;;;17.80;5.95;;;;;;;;;;5017921;28;20434;-67
2023/08/02 04:54:15;;;;;;;15.98;5.93;;;;;;;;;;5020670;28;20057;-66
2023/08/02 04:56:41;;;;;;;14.88;6.18;;;;;;;;;;5021778;28;20049;-65
2023/08/02 04:59:07;;;;;;;16.40;6.10;;;;;;;;;;5019829;28;20054;-65
2023/08/02 05:01:33;;;;;;;16.15;5.85;;;;;;;;;;5022312;28;20044;-65
2023/08/02 05:03:59;;;;;;;13.60;6.38;;;;;;;;;;5024789;28;20057;-66
2023/08/02 05:06:25;;;;;;;17.95;5.50;;;;;;;;;;5020427;28;20049;-67
2023/08/02 05:08:50;;;;;;;17.67;5.72;;;;;;;;;;5022458;28;20538;-66
2023/08/02 05:11:16;;;;;;;12.20;5.57;;;;;;;;;;5025675;28;20057;-65
2023/08/02 05:13:42;;;;;;;12.68;5.10;;;;;;;;;;5022874;28;20053;-67
2023/08/02 05:16:13;;;;;;;10.68;4.90;;;;;;;;;;5022614;28;20044;-66
2023/08/02 05:18:39;;;;;;;11.15;5.10;;;;;;;;;;5012559;28;20053;-65
2023/08/02 05:21:16;;;;;;;12.43;5.18;;;;;;;;;;5025534;28;20164;-65
2023/08/02 05:23:42;;;;;;;17.48;5.60;;;;;;;;;;5012925;28;20157;-65
2023/08/02 05:26:09;;;;;;;15.43;4.93;;;;;;;;;;5026469;28;20436;-66
2023/08/02 05:28:36;;;;;;;12.82;5.18;;;;;;;;;;5017958;28;20064;-67
2023/08/02 05:31:03;;;;;;;11.63;5.15;;;;;;;;;;5013851;28;20151;-67
2023/08/02 05:33:29;;;;;;;18.60;5.43;;;;;;;;;;5018936;28;20423;-66
2023/08/02 05:35:55;;;;;;;21.10;6.00;;;;;;;;;;5019333;28;20049;-67
2023/08/02 05:38:21;;;;;;;23.98;6.30;;;;;;;;;;5023787;28;20049;-67
2023/08/02 05:40:47;;;;;;;18.55;5.20;;;;;;;;;;5024331;28;20041;-66
2023/08/02 05:43:13;;;;;;;18.98;6.30;;;;;;;;;;5018041;28;20089;-66
2023/08/02 05:45:39;;;;;;;23.60;6.30;;;;;;;;;;5030036;28;20064;-68
2023/08/02 05:48:05;;;;;;;29.15;5.43;;;;;;;;;;5019444;28;20053;-66
2023/08/02 05:50:31;;;;;;;12.23;5.88;;;;;;;;;;5030890;28;20059;-70
2023/08/02 05:52:57;;;;;;;22.27;6.00;;;;;;;;;;5019579;28;20069;-67
2023/08/02 05:55:23;;;;;;;22.00;6.53;;;;;;;;;;5024206;28;20060;-66
2023/08/02 05:57:49;;;;;;;14.93;5.72;;;;;;;;;;5022214;28;20057;-67
2023/08/02 06:00:15;;;;;;;17.33;5.55;;;;;;;;;;5020556;28;20388;-67
2023/08/02 06:02:41;;;;;;;20.25;6.55;;;;;;;;;;5021661;28;20061;-66
2023/08/02 06:05:08;;;;;;;17.80;5.95;;;;;;;;;;5028748;28;20422;-67
2023/08/02 06:07:34;;;;;;;17.90;5.63;;;;;;;;;;5022922;28;20499;-68
2023/08/02 06:10:00;;;;;;;17.17;5.30;;;;;;;;;;5019932;28;20038;-67
2023/08/02 06:12:26;;;;;;;11.85;4.80;;;;;;;;;;5021921;28;20073;-70
2023/08/02 06:14:52;;;;;;;18.27;5.45;;;;;;;;;;5018021;28;20045;-67
2023/08/02 06:17:18;;;;;;;22.42;5.75;;;;;;;;;;5025829;28;20075;-66
2023/08/02 06:19:44;;;;;;;21.98;5.85;;;;;;;;;;5029669;28;20202;-67
2023/08/02 06:22:10;;;;;;;19.90;5.65;;;;;;;;;;5030050;28;20137;-67
2023/08/02 06:24:36;;;;;;;14.55;5.57;;;;;;;;;;5011471;28;20491;-66
2023/08/02 06:27:02;;;;;;;16.40;5.45;;;;;;;;;;5017249;28;20111;-68
2023/08/02 06:29:29;;;;;;;16.80;5.50;;;;;;;;;;5028580;28;20054;-66
2023/08/02 06:31:54;;;;;;;35.50;6.45;;;;;;;;;;5027497;28;20052;-66
2023/08/02 06:34:21;;;;;;;23.02;5.47;;;;;;;;;;5024832;28;20144;-66
2023/08/02 06:36:47;;;;;;;16.42;5.15;;;;;;;;;;5022875;28;20550;-66
2023/08/02 06:39:13;;;;;;;24.80;5.07;;;;;;;;;;5026225;28;20052;-66
2023/08/02 06:41:39;;;;;;;13.70;5.38;;;;;;;;;;5020401;28;20045;-65
2023/08/02 06:44:05;;;;;;;19.90;5.68;;;;;;;;;;5025505;28;20573;-66
2023/08/02 06:46:32;;;;;;;15.48;5.82;;;;;;;;;;5028052;28;20049;-67
2023/08/02 06:48:59;;;;;;;20.73;5.68;;;;;;;;;;5020426;28;20057;-67
2023/08/02 06:51:25;;;;;;;13.32;6.25;;;;;;;;;;5026076;28;20045;-68
2023/08/02 06:53:51;;;;;;;20.15;6.40;;;;;;;;;;5022431;28;20041;-67
2023/08/02 06:56:17;;;;;;;16.75;6.50;;;;;;;;;;5019133;28;20046;-67
2023/08/02 06:58:44;;;;;;;22.60;7.13;;;;;;;;;;5016409;28;20053;-70
2023/08/02 07:01:22;;;;;;;18.38;6.90;;;;;;;;;;5019353;28;20050;-69
2023/08/02 07:03:49;;;;;;;30.58;7.47;;;;;;;;;;5029330;28;20045;-68
2023/08/02 07:06:20;;;;;;;17.20;5.93;;;;;;;;;;5019609;28;20053;-68
2023/08/02 07:08:47;;;;;;;14.77;5.18;;;;;;;;;;5016595;28;20046;-66
2023/08/02 07:11:13;;;;;;;17.83;5.18;;;;;;;;;;5019995;28;20052;-68
2023/08/02 07:13:44;;;;;;;16.35;5.13;;;;;;;;;;5022381;28;20056;-67
2023/08/02 07:16:10;;;;;;;16.23;5.00;;;;;;;;;;5018092;28;20045;-68
2023/08/02 07:18:36;;;;;;;13.25;5.00;;;;;;;;;;5015711;28;20239;-68
2023/08/02 07:21:06;;;;;;;27.73;5.15;;;;;;;;;;5017121;28;20140;-69
2023/08/02 07:23:33;;;;;;;13.45;4.80;;;;;;;;;;5020769;28;20419;-69
2023/08/02 07:25:59;;;;;;;18.45;4.75;;;;;;;;;;5015689;28;20052;-69
2023/08/02 07:28:25;;;;;;;20.38;5.00;;;;;;;;;;5013564;28;20466;-69
2023/08/02 07:30:51;;;;;;;21.55;5.40;;;;;;;;;;5020281;28;20041;-66
2023/08/02 07:33:17;;;;;;;17.02;5.75;;;;;;;;;;5022440;28;20061;-66
2023/08/02 07:35:46;;;;;;;15.48;5.70;;;;;;;;;;5016614;28;20518;-67
2023/08/02 07:38:14;;;;;;;16.15;5.00;;;;;;;;;;5020363;28;20053;-64
2023/08/02 07:40:42;;;;;;;16.60;5.57;;;;;;;;;;5014857;28;20049;-66
2023/08/02 07:43:10;;;;;;;16.58;5.55;;;;;;;;;;4992764;28;20453;-68
2023/08/02 07:45:35;;;;;;;15.55;4.88;;;;;;;;;;5027224;28;20041;-65
2023/08/02 07:48:01;;;;;;;10.52;4.55;;;;;;;;;;5023346;28;21131;-69
2023/08/02 07:50:27;;;;;;;15.43;4.90;;;;;;;;;;5028018;28;20042;-68
2023/08/02 07:52:53;;;;;;;15.23;4.75;;;;;;;;;;5015445;28;20062;-68
2023/08/02 07:55:19;;;;;;;9.25;3.97;;;;;;;;;;5021004;28;20054;-68
2023/08/02 07:57:45;;;;;;;15.65;4.70;;;;;;;;;;5023551;28;20057;-72
2023/08/02 08:00:12;;;;;;;16.77;4.18;;;;;;;;;;5018882;28;20045;-67
2023/08/02 08:02:39;;;;;;;21.60;8.68;;;;;;;;;;5018546;28;20192;-70
2023/08/02 08:05:06;;;;;;;17.73;5.07;;;;;;;;;;5020631;28;20049;-70
2023/08/02 08:07:32;;;;;;;14.38;4.32;;;;;;;;;;5023507;28;20044;-72
2023/08/02 08:09:58;;;;;;;15.40;4.80;;;;;;;;;;5019511;28;20041;-72
2023/08/02 08:12:25;;;;;;;18.52;4.88;;;;;;;;;;5026729;28;20064;-68
2023/08/02 08:14:51;;;;;;;10.30;4.78;;;;;;;;;;5025720;28;20060;-69
2023/08/02 08:17:17;;;;;;;19.60;4.88;;;;;;;;;;5021111;28;20133;-68
2023/08/02 08:19:43;;;;;;;15.63;5.07;;;;;;;;;;5020457;28;20076;-69
2023/08/02 08:22:09;;;;;;;12.52;4.45;;;;;;;;;;5014171;28;20503;-69
2023/08/02 08:24:35;;;;;;;17.33;4.28;;;;;;;;;;5018266;28;20053;-70
2023/08/02 08:27:02;;;;;;;13.75;4.65;;;;;;;;;;5021924;28;20072;-68
2023/08/02 08:29:28;;;;;;;14.07;4.82;;;;;;;;;;5025309;28;20473;-72
2023/08/02 08:31:54;;;;;;;15.68;4.20;;;;;;;;;;5027111;28;20038;-68
2023/08/02 08:34:20;;;;;;;14.73;4.55;;;;;;;;;;5022105;28;20180;-69
2023/08/02 08:36:47;;;;;;;14.38;4.63;;;;;;;;;;5017715;28;20049;-69
2023/08/02 08:39:13;;;;;;;12.45;4.35;;;;;;;;;;5013456;28;20050;-69
2023/08/02 08:41:39;;;;;;;17.75;4.50;;;;;;;;;;5019129;28;20056;-68
2023/08/02 08:44:05;;;;;;;15.13;4.63;;;;;;;;;;5020386;28;20037;-70
2023/08/02 08:46:32;;;;;;;17.63;4.97;;;;;;;;;;5025960;28;20124;-70
2023/08/02 08:49:02;;;;;;;13.35;4.45;;;;;;;;;;5023900;28;20115;-67
2023/08/02 08:51:32;;;;;;;15.50;4.55;;;;;;;;;;5024686;28;20048;-70
2023/08/02 08:54:03;;;;;;;10.68;4.65;;;;;;;;;;5022572;28;20410;-71
2023/08/02 08:56:34;;;;;;;15.68;5.28;;;;;;;;;;5015683;28;20076;-69
2023/08/02 08:59:01;;;;;;;16.42;4.70;;;;;;;;;;5022879;28;20058;-67
2023/08/02 09:01:28;;;;;;;12.50;4.32;;;;;;;;;;5025233;28;20503;-68
2023/08/02 09:03:56;;;;;;;11.43;4.65;;;;;;;;;;5023960;28;20510;-70
2023/08/02 09:06:23;;;;;;;12.77;4.78;;;;;;;;;;5026906;28;20061;-67
2023/08/02 09:08:49;;;;;;;19.77;4.70;;;;;;;;;;5024352;28;20469;-68
2023/08/02 09:11:16;;;;;;;18.35;4.95;;;;;;;;;;5022763;28;20042;-67
2023/08/02 09:13:42;;;;;;;14.93;4.82;;;;;;;;;;5018797;28;20125;-68
2023/08/02 09:16:15;;;;;;;8.02;4.20;;;;;;;;;;5021709;28;20144;-68
2023/08/02 09:19:22;;;;;;;17.95;5.20;;;;;;;;;;5019868;28;20140;-70
2023/08/02 09:23:01;;;;;;;11.48;5.05;;;;;;;;;;5017113;28;20075;-68
2023/08/02 09:26:57;;;;;;;11.30;4.10;;;;;;;;;;5017024;28;20399;-68
2023/08/02 09:30:23;;;;;;;9.18;3.95;;;;;;;;;;5025524;28;20411;-70
2023/08/02 09:34:06;;;;;;;13.10;4.10;;;;;;;;;;5022218;28;20038;-67
2023/08/02 09:37:47;;;;;;;11.50;4.18;;;;;;;;;;5023351;28;20064;-68
2023/08/02 09:41:27;;;;;;;14.02;4.40;;;;;;;;;;5027099;28;20419;-67
2023/08/02 09:45:13;;;;;;;13.23;4.35;;;;;;;;;;5025275;28;20108;-68
2023/08/02 09:48:54;;;;;;;11.90;4.30;;;;;;;;;;5027040;28;20061;-67
2023/08/02 09:52:34;;;;;;;10.10;4.47;;;;;;;;;;5021279;28;20048;-69
2023/08/02 09:56:14;;;;;;;10.00;4.65;;;;;;;;;;5027599;28;20406;-69
2023/08/02 09:59:57;;;;;;;13.57;4.18;;;;;;;;;;5025461;28;20041;-70
2023/08/02 10:03:35;;;;;;;10.63;4.28;;;;;;;;;;5025020;28;20506;-69
2023/08/02 10:07:04;;;;;;;13.20;4.53;;;;;;;;;;5018329;28;20143;-68
2023/08/02 10:10:45;;;;;;;12.55;4.88;;;;;;;;;;5028070;28;20054;-69
2023/08/02 10:14:25;;;;;;;14.57;4.53;;;;;;;;;;5020190;28;20173;-71
2023/08/02 10:18:05;;;;;;;12.88;4.30;;;;;;;;;;5022272;28;20665;-69
2023/08/02 10:21:46;;;;;;;9.50;4.22;;;;;;;;;;5020014;28;20132;-68
2023/08/02 10:25:26;;;;;;;11.23;4.50;;;;;;;;;;5025644;28;20102;-69
2023/08/02 10:28:28;;;;;;;10.32;3.95;;;;;;;;;;5017836;28;20114;-69
2023/08/02 10:30:54;;;;;;;12.13;4.45;;;;;;;;;;5021945;28;20045;-70
2023/08/02 10:33:21;;;;;;;10.73;4.50;;;;;;;;;;5026705;28;20044;-70
2023/08/02 10:36:04;;;;;;;12.60;4.60;;;;;;;;;;5029143;28;20037;-70
2023/08/02 10:38:38;;;;;;;14.73;4.90;;;;;;;;;;5018710;28;20048;-70
2023/08/02 10:41:07;;;;;;;12.63;4.95;;;;;;;;;;5022791;28;20053;-70
2023/08/02 10:43:33;;;;;;;9.88;4.53;;;;;;;;;;5016719;28;20053;-71
2023/08/02 10:46:38;;;;;;;12.68;4.97;;;;;;;;;;5024307;28;20091;-72
2023/08/02 10:50:18;;;;;;;14.57;4.43;;;;;;;;;;5026148;28;20041;-70
2023/08/02 10:54:00;;;;;;;10.30;4.30;;;;;;;;;;5020845;28;20045;-69
2023/08/02 10:57:05;;;;;;;10.77;4.07;;;;;;;;;;5022283;28;20052;-70
2023/08/02 11:00:53;;;;;;;10.02;4.25;;;;;;;;;;5021807;28;20042;-70
2023/08/02 11:04:34;;;;;;;10.93;4.07;;;;;;;;;;5020915;28;20041;-70
2023/08/02 11:08:16;;;;;;;13.57;4.50;;;;;;;;;;5014095;28;20057;-70
2023/08/02 11:11:57;;;;;;;12.00;3.65;;;;;;;;;;5019044;28;20055;-69
2023/08/02 11:15:37;;;;;;;9.68;4.13;;;;;;;;;;5012657;28;20131;-67
2023/08/02 11:19:17;;;;;;;9.63;3.88;;;;;;;;;;5020493;28;20053;-72
2023/08/02 11:22:59;;;;;;;12.82;3.60;;;;;;;;;;5018767;28;20411;-67
2023/08/02 11:26:49;;;;;;;12.50;3.53;;;;;;;;;;5018852;28;20041;-67
2023/08/02 11:30:39;;;;;;;12.38;4.07;;;;;;;;;;5022133;28;20162;-67
2023/08/02 11:34:20;;;;;;;12.88;3.83;;;;;;;;;;5018983;28;20076;-68
2023/08/02 11:38:00;;;;;;;9.50;3.40;;;;;;;;;;5022833;28;20088;-69
2023/08/02 11:41:41;;;;;;;9.80;3.45;;;;;;;;;;5015934;28;20058;-65
2023/08/02 11:45:21;;;;;;;13.35;4.10;;;;;;;;;;5012913;28;21094;-67
2023/08/02 11:49:05;;;;;;;7.63;3.33;;;;;;;;;;5020309;28;20521;-69
2023/08/02 11:52:51;;;;;;;16.17;4.35;;;;;;;;;;5016530;28;20107;-70
2023/08/02 11:56:31;;;;;;;16.63;3.90;;;;;;;;;;5023967;28;20497;-68
2023/08/02 12:00:14;;;;;;;14.18;4.15;;;;;;;;;;5023529;28;20056;-67
2023/08/02 12:03:15;;;;;;;11.82;3.85;;;;;;;;;;5018144;28;20060;-70
2023/08/02 12:05:44;;;;;;;10.18;3.45;;;;;;;;;;5020312;28;20041;-69
2023/08/02 12:08:17;;;;;;;9.90;3.70;;;;;;;;;;5017629;28;20154;-68
2023/08/02 12:10:44;;;;;;;8.40;3.60;;;;;;;;;;5024129;28;20049;-67
2023/08/02 12:13:14;;;;;;;11.07;3.85;;;;;;;;;;5018257;28;20041;-69
2023/08/02 12:16:21;;;;;;;8.52;3.47;;;;;;;;;;5022640;28;20056;-67
2023/08/02 12:20:02;;;;;;;16.52;4.05;;;;;;;;;;5020792;28;20041;-66
2023/08/02 12:23:53;;;;;;;8.57;3.47;;;;;;;;;;5022864;28;20057;-68
2023/08/02 12:27:36;;;;;;;10.68;3.47;;;;;;;;;;5021363;28;20084;-68
2023/08/02 12:31:20;;;;;;;10.07;3.47;;;;;;;;;;5017735;28;20142;-66
2023/08/02 12:35:01;;;;;;;9.38;3.45;;;;;;;;;;5022847;28;20111;-68
2023/08/02 12:38:42;;;;;;;6.93;3.35;;;;;;;;;;5021859;28;20052;-67
2023/08/02 12:42:22;;;;;;;8.80;3.40;;;;;;;;;;5020635;28;20210;-66
2023/08/02 12:46:02;;;;;;;10.63;3.50;;;;;;;;;;5019058;28;20144;-65
2023/08/02 12:49:43;;;;;;;5.88;3.70;;;;;;;;;;5026725;28;20060;-67
2023/08/02 12:53:23;;;;;;;10.30;3.92;;;;;;;;;;5016590;28;20514;-64
2023/08/02 12:56:23;;;;;;;8.93;3.40;;;;;;;;;;5017515;28;20053;-66
2023/08/02 12:59:29;;;;;;;10.95;3.50;;;;;;;;;;5016334;28;20508;-66
2023/08/02 13:03:10;;;;;;;11.00;3.40;;;;;;;;;;5013753;28;20111;-66
2023/08/02 13:06:50;;;;;;;7.97;3.25;;;;;;;;;;5014472;28;20072;-68
2023/08/02 13:10:30;;;;;;;12.15;3.78;;;;;;;;;;5019913;28;20045;-67
2023/08/02 13:14:11;;;;;;;12.13;4.03;;;;;;;;;;5013844;28;20046;-66
2023/08/02 13:17:51;;;;;;;12.52;3.53;;;;;;;;;;5017538;28;20056;-67
2023/08/02 13:21:33;;;;;;;8.38;3.08;;;;;;;;;;5020655;28;20531;-69
2023/08/02 13:25:13;;;;;;;10.52;3.80;;;;;;;;;;5022151;28;20056;-68
2023/08/02 13:28:54;;;;;;;12.27;3.53;;;;;;;;;;5019064;28;20064;-69
2023/08/02 13:32:34;;;;;;;10.32;2.95;;;;;;;;;;5010679;28;20149;-70
2023/08/02 13:36:14;;;;;;;9.98;3.10;;;;;;;;;;5019298;28;20038;-71
2023/08/02 13:39:55;;;;;;;12.02;3.50;;;;;;;;;;5014881;28;20058;-68
2023/08/02 13:43:35;;;;;;;10.93;3.50;;;;;;;;;;5025473;28;20041;-68
2023/08/02 13:47:15;;;;;;;10.73;3.40;;;;;;;;;;5015661;28;20057;-68
2023/08/02 13:50:56;;;;;;;14.25;3.80;;;;;;;;;;5026394;28;20045;-69
2023/08/02 13:54:36;;;;;;;13.25;3.58;;;;;;;;;;5020470;28;20057;-68
2023/08/02 13:58:16;;;;;;;14.88;4.05;;;;;;;;;;5027773;28;20159;-70
2023/08/02 14:01:57;;;;;;;13.55;3.47;;;;;;;;;;5017493;28;20053;-70
2023/08/02 14:05:37;;;;;;;13.18;3.50;;;;;;;;;;5020287;28;20045;-69
2023/08/02 14:09:17;;;;;;;13.25;3.85;;;;;;;;;;5023525;28;20045;-68
2023/08/02 14:12:58;;;;;;;12.27;3.47;;;;;;;;;;5023964;28;20052;-69
2023/08/02 14:16:38;;;;;;;12.75;3.17;;;;;;;;;;5025964;28;20049;-68
2023/08/02 14:20:18;;;;;;;12.27;3.22;;;;;;;;;;5022598;28;20042;-69
2023/08/02 14:23:58;;;;;;;9.88;3.53;;;;;;;;;;5024459;28;20065;-66
2023/08/02 14:27:39;;;;;;;12.52;3.55;;;;;;;;;;5013051;28;20058;-70
2023/08/02 14:31:19;;;;;;;9.18;3.22;;;;;;;;;;5020712;28;20129;-65
2023/08/02 14:35:00;;;;;;;11.45;3.13;;;;;;;;;;5022775;28;20045;-67
2023/08/02 14:38:40;;;;;;;13.15;3.55;;;;;;;;;;5020972;28;20499;-67
2023/08/02 14:42:20;;;;;;;10.23;3.30;;;;;;;;;;5013586;28;20099;-65
2023/08/02 14:46:01;;;;;;;15.93;3.58;;;;;;;;;;5024939;28;20114;-67
2023/08/02 14:49:41;;;;;;;16.05;3.33;;;;;;;;;;5032753;28;20055;-67
2023/08/02 14:53:24;;;;;;;12.55;3.83;;;;;;;;;;5017825;28;20419;-67
2023/08/02 14:57:05;;;;;;;15.48;3.50;;;;;;;;;;5027577;28;20045;-73
2023/08/02 15:00:43;;;;;;;11.25;3.22;;;;;;;;;;5024329;28;20053;-65
2023/08/02 15:04:23;;;;;;;18.17;4.35;;;;;;;;;;5010393;28;20081;-69
2023/08/02 15:08:04;;;;;;;14.40;3.85;;;;;;;;;;5017543;28;20153;-66
2023/08/02 15:11:44;;;;;;;15.20;3.72;;;;;;;;;;5021459;28;20973;-65
2023/08/02 15:15:24;;;;;;;15.05;3.88;;;;;;;;;;5018167;28;20168;-66
2023/08/02 15:19:05;;;;;;;20.75;4.00;;;;;;;;;;5015716;28;20088;-67
2023/08/02 15:22:45;;;;;;;11.73;3.53;;;;;;;;;;5016898;28;20051;-67
2023/08/02 15:26:26;;;;;;;11.75;3.47;;;;;;;;;;5015904;28;20099;-65
2023/08/02 15:30:07;;;;;;;15.07;4.20;;;;;;;;;;5019996;28;20046;-65
2023/08/02 15:33:51;;;;;;;12.05;3.85;;;;;;;;;;5019335;28;20057;-67
2023/08/02 15:37:28;;;;;;;11.95;3.53;;;;;;;;;;5028132;28;20037;-67
2023/08/02 15:41:09;;;;;;;9.82;3.78;;;;;;;;;;5024745;28;20037;-67
2023/08/02 15:44:49;;;;;;;11.43;3.42;;;;;;;;;;5018715;28;20107;-69
2023/08/02 15:48:29;;;;;;;12.57;3.40;;;;;;;;;;5017334;28;20502;-65
2023/08/02 15:52:09;;;;;;;13.85;3.75;;;;;;;;;;5011386;28;20119;-69
2023/08/02 15:55:50;;;;;;;12.82;3.67;;;;;;;;;;5013120;28;20533;-67
2023/08/02 15:59:30;;;;;;;12.85;3.50;;;;;;;;;;5020850;28;20047;-67
2023/08/02 16:03:10;;;;;;;12.55;3.63;;;;;;;;;;5016966;28;20155;-64
2023/08/02 16:06:51;;;;;;;18.30;3.55;;;;;;;;;;5021325;28;20049;-68
2023/08/02 16:09:51;;;;;;;14.35;3.72;;;;;;;;;;5012527;28;20782;-70
2023/08/02 16:12:17;;;;;;;18.70;4.13;;;;;;;;;;5024126;28;20172;-67
2023/08/02 16:14:43;;;;;;;15.90;4.00;;;;;;;;;;5021644;28;20463;-67
2023/08/02 16:17:09;;;;;;;13.68;3.90;;;;;;;;;;5016757;28;20053;-66
2023/08/02 16:19:35;;;;;;;14.20;3.67;;;;;;;;;;5019423;28;20065;-67
2023/08/02 16:22:01;;;;;;;15.90;4.28;;;;;;;;;;5017574;28;20049;-68
2023/08/02 16:25:07;;;;;;;16.30;3.85;;;;;;;;;;5014317;28;20050;-69
2023/08/02 16:28:49;;;;;;;13.40;3.75;;;;;;;;;;5015851;28;20080;-70
2023/08/02 16:32:30;;;;;;;15.55;3.50;;;;;;;;;;5020591;28;20053;-67
2023/08/02 16:36:10;;;;;;;15.30;3.63;;;;;;;;;;5018588;28;20061;-68
2023/08/02 16:39:51;;;;;;;12.50;3.80;;;;;;;;;;5013909;28;20474;-66
2023/08/02 16:42:52;;;;;;;15.10;3.35;;;;;;;;;;5014562;28;20046;-68
2023/08/02 16:45:18;;;;;;;10.52;3.70;;;;;;;;;;5015572;28;20157;-67
2023/08/02 16:47:44;;;;;;;10.48;3.30;;;;;;;;;;5018504;28;20147;-66
2023/08/02 16:50:10;;;;;;;13.63;3.85;;;;;;;;;;5015594;28;20498;-66
2023/08/02 16:52:37;;;;;;;11.38;3.30;;;;;;;;;;5011959;28;20042;-67
2023/08/02 16:55:42;;;;;;;12.00;3.53;;;;;;;;;;5017079;28;20415;-66
2023/08/02 16:59:24;;;;;;;15.40;3.67;;;;;;;;;;5013796;28;20052;-68
2023/08/02 17:03:05;;;;;;;13.07;3.80;;;;;;;;;;5008681;28;20038;-67
2023/08/02 17:06:45;;;;;;;12.50;3.72;;;;;;;;;;5013503;28;20054;-70
2023/08/02 17:10:25;;;;;;;13.02;3.70;;;;;;;;;;5011595;28;20038;-71
2023/08/02 17:14:06;;;;;;;11.82;3.83;;;;;;;;;;5012245;28;20053;-69
2023/08/02 17:17:46;;;;;;;16.30;3.20;;;;;;;;;;5016413;28;20048;-68
2023/08/02 17:21:26;;;;;;;15.20;3.13;;;;;;;;;;5012127;28;20445;-69
2023/08/02 17:25:07;;;;;;;12.32;3.58;;;;;;;;;;5015977;28;20048;-69
2023/08/02 17:28:47;;;;;;;17.58;3.78;;;;;;;;;;5015285;28;20537;-67
2023/08/02 17:32:27;;;;;;;18.15;4.00;;;;;;;;;;5018399;28;20046;-67
2023/08/02 17:36:08;;;;;;;11.82;3.78;;;;;;;;;;5020139;28;20045;-66
2023/08/02 17:39:53;;;;;;;10.60;3.70;;;;;;;;;;5022854;28;20041;-66
2023/08/02 17:43:29;;;;;;;13.52;3.95;;;;;;;;;;5021073;28;20061;-66